sensor_id;sensor_type;location;lat;lon;timestamp;pressure;altitude;pressure_sealevel;temperature;humidity
2673;BME280;1346;51.558;6.996;2022-11-13T00:01:12;102246.81;;;6.92;100.00
2673;BME280;1346;51.558;6.996;2022-11-13T00:03:39;102242.41;;;6.91;100.00
2673;BME280;1346;51.558;6.996;2022-11-13T00:06:07;102242.50;;;6.89;100.00
2673;BME280;1346;51.558;6.996;2022-11-13T00:08:36;102240.78;;;6.88;100.00
2673;BME280;1346;51.558;6.996;2022-11-13T00:11:05;102238.22;;;6.87;100.00
2673;BME280;1346;51.558;6.996;2022-11-13T00:13:33;102238.22;;;6.87;100.00
2673;BME280;1346;51.558;6.996;2022-11-13T00:16:04;102238.38;;;6.84;100.00
2673;BME280;1346;51.558;6.996;2022-11-13T00:18:33;102236.78;;;6.81;100.00
2673;BME280;1346;51.558;6.996;2022-11-13T00:21:05;102234.22;;;6.80;100.00
2673;BME280;1346;51.558;6.996;2022-11-13T00:23:33;102234.31;;;6.78;100.00
2673;BME280;1346;51.558;6.996;2022-11-13T00:26:05;102238.00;;;6.76;100.00
2673;BME280;1346;51.558;6.996;2022-11-13T00:28:32;102235.53;;;6.73;100.00
2673;BME280;1346;51.558;6.996;2022-11-13T00:31:00;102239.31;;;6.69;100.00
2673;BME280;1346;51.558;6.996;2022-11-13T00:33:27;102236.06;;;6.64;100.00
2673;BME280;1346;51.558;6.996;2022-11-13T00:36:01;102235.38;;;6.60;100.00
2673;BME280;1346;51.558;6.996;2022-11-13T00:38:28;102236.44;;;6.58;100.00
2673;BME280;1346;51.558;6.996;2022-11-13T00:40:55;102227.78;;;6.54;100.00
2673;BME280;1346;51.558;6.996;2022-11-13T00:43:24;102228.78;;;6.52;100.00
2673;BME280;1346;51.558;6.996;2022-11-13T00:45:51;102225.38;;;6.50;100.00
2673;BME280;1346;51.558;6.996;2022-11-13T00:48:18;102227.28;;;6.48;100.00
2673;BME280;1346;51.558;6.996;2022-11-13T00:50:46;102229.16;;;6.46;100.00
2673;BME280;1346;51.558;6.996;2022-11-13T00:53:13;102223.06;;;6.44;100.00
2673;BME280;1346;51.558;6.996;2022-11-13T00:55:41;102220.59;;;6.41;100.00
2673;BME280;1346;51.558;6.996;2022-11-13T00:58:09;102211.75;;;6.40;100.00
2673;BME280;1346;51.558;6.996;2022-11-13T01:00:37;102212.78;;;6.38;100.00
2673;BME280;1346;51.558;6.996;2022-11-13T01:03:05;102207.63;;;6.35;100.00
2673;BME280;1346;51.558;6.996;2022-11-13T01:05:35;102209.44;;;6.34;100.00
2673;BME280;1346;51.558;6.996;2022-11-13T01:08:03;102201.56;;;6.33;100.00
2673;BME280;1346;51.558;6.996;2022-11-13T01:10:30;102206.03;;;6.32;100.00
2673;BME280;1346;51.558;6.996;2022-11-13T01:12:57;102204.31;;;6.31;100.00
2673;BME280;1346;51.558;6.996;2022-11-13T01:15:24;102208.78;;;6.31;100.00
2673;BME280;1346;51.558;6.996;2022-11-13T01:17:53;102207.91;;;6.30;100.00
2673;BME280;1346;51.558;6.996;2022-11-13T01:20:21;102206.09;;;6.31;100.00
2673;BME280;1346;51.558;6.996;2022-11-13T01:22:48;102202.50;;;6.32;100.00
2673;BME280;1346;51.558;6.996;2022-11-13T01:25:15;102200.59;;;6.34;100.00
2673;BME280;1346;51.558;6.996;2022-11-13T01:27:43;102202.31;;;6.35;100.00
2673;BME280;1346;51.558;6.996;2022-11-13T01:30:11;102197.75;;;6.37;100.00
2673;BME280;1346;51.558;6.996;2022-11-13T01:32:38;102189.66;;;6.38;100.00
2673;BME280;1346;51.558;6.996;2022-11-13T01:35:07;102189.59;;;6.40;100.00
2673;BME280;1346;51.558;6.996;2022-11-13T01:37:34;102186.94;;;6.40;100.00
2673;BME280;1346;51.558;6.996;2022-11-13T01:40:01;102182.38;;;6.42;100.00
2673;BME280;1346;51.558;6.996;2022-11-13T01:42:30;102182.38;;;6.42;100.00
2673;BME280;1346;51.558;6.996;2022-11-13T01:44:59;102171.72;;;6.42;100.00
2673;BME280;1346;51.558;6.996;2022-11-13T01:47:27;102171.72;;;6.42;100.00
2673;BME280;1346;51.558;6.996;2022-11-13T01:49:56;102171.56;;;6.45;100.00
2673;BME280;1346;51.558;6.996;2022-11-13T01:52:28;102166.13;;;6.46;100.00
2673;BME280;1346;51.558;6.996;2022-11-13T01:55:00;102157.47;;;6.43;100.00
2673;BME280;1346;51.558;6.996;2022-11-13T01:57:28;102162.81;;;6.43;100.00
2673;BME280;1346;51.558;6.996;2022-11-13T02:00:02;102169.91;;;6.42;100.00
2673;BME280;1346;51.558;6.996;2022-11-13T02:02:30;102160.13;;;6.43;100.00
2673;BME280;1346;51.558;6.996;2022-11-13T02:04:56;102159.19;;;6.44;100.00
2673;BME280;1346;51.558;6.996;2022-11-13T02:07:25;102150.31;;;6.43;100.00
2673;BME280;1346;51.558;6.996;2022-11-13T02:09:54;102150.31;;;6.43;100.00
2673;BME280;1346;51.558;6.996;2022-11-13T02:12:29;102154.81;;;6.43;100.00
2673;BME280;1346;51.558;6.996;2022-11-13T02:14:57;102150.41;;;6.42;100.00
2673;BME280;1346;51.558;6.996;2022-11-13T02:17:30;102149.69;;;6.40;100.00
2673;BME280;1346;51.558;6.996;2022-11-13T02:20:01;102149.69;;;6.40;100.00
2673;BME280;1346;51.558;6.996;2022-11-13T02:22:36;102150.59;;;6.39;100.00
2673;BME280;1346;51.558;6.996;2022-11-13T02:25:06;102142.81;;;6.36;100.00
2673;BME280;1346;51.558;6.996;2022-11-13T02:27:38;102141.09;;;6.35;100.00
2673;BME280;1346;51.558;6.996;2022-11-13T02:30:13;102141.16;;;6.33;100.00
2673;BME280;1346;51.558;6.996;2022-11-13T02:32:45;102143.16;;;6.30;100.00
2673;BME280;1346;51.558;6.996;2022-11-13T02:35:16;102140.50;;;6.30;100.00
2673;BME280;1346;51.558;6.996;2022-11-13T02:37:45;102135.28;;;6.28;100.00
2673;BME280;1346;51.558;6.996;2022-11-13T02:40:14;102146.00;;;6.27;100.00
2673;BME280;1346;51.558;6.996;2022-11-13T02:42:41;102138.97;;;6.26;100.00
2673;BME280;1346;51.558;6.996;2022-11-13T02:45:09;102135.56;;;6.24;100.00
2673;BME280;1346;51.558;6.996;2022-11-13T02:47:36;102133.06;;;6.21;100.00
2673;BME280;1346;51.558;6.996;2022-11-13T02:50:05;102128.69;;;6.20;100.00
2673;BME280;1346;51.558;6.996;2022-11-13T02:52:32;102131.53;;;6.17;100.00
2673;BME280;1346;51.558;6.996;2022-11-13T02:54:59;102130.66;;;6.16;100.00
2673;BME280;1346;51.558;6.996;2022-11-13T02:57:28;102124.59;;;6.14;100.00
2673;BME280;1346;51.558;6.996;2022-11-13T02:59:54;102122.97;;;6.11;100.00
2673;BME280;1346;51.558;6.996;2022-11-13T03:02:21;102121.25;;;6.10;100.00
2673;BME280;1346;51.558;6.996;2022-11-13T03:04:48;102120.59;;;6.07;100.00
2673;BME280;1346;51.558;6.996;2022-11-13T03:07:15;102117.25;;;6.03;100.00
2673;BME280;1346;51.558;6.996;2022-11-13T03:09:43;102121.88;;;6.00;100.00
2673;BME280;1346;51.558;6.996;2022-11-13T03:12:10;102118.47;;;5.98;100.00
2673;BME280;1346;51.558;6.996;2022-11-13T03:14:38;102120.34;;;5.96;100.00
2673;BME280;1346;51.558;6.996;2022-11-13T03:17:05;102115.13;;;5.94;100.00
2673;BME280;1346;51.558;6.996;2022-11-13T03:19:32;102111.69;;;5.92;100.00
2673;BME280;1346;51.558;6.996;2022-11-13T03:21:59;102114.53;;;5.89;100.00
2673;BME280;1346;51.558;6.996;2022-11-13T03:24:26;102111.19;;;5.86;100.00
2673;BME280;1346;51.558;6.996;2022-11-13T03:26:53;102107.75;;;5.84;100.00
2673;BME280;1346;51.558;6.996;2022-11-13T03:29:19;102111.53;;;5.80;100.00
2673;BME280;1346;51.558;6.996;2022-11-13T03:31:48;102110.84;;;5.76;100.00
2673;BME280;1346;51.558;6.996;2022-11-13T03:34:15;102096.84;;;5.73;100.00
2673;BME280;1346;51.558;6.996;2022-11-13T03:36:41;102098.94;;;5.68;100.00
2673;BME280;1346;51.558;6.996;2022-11-13T03:39:08;102101.88;;;5.63;100.00
2673;BME280;1346;51.558;6.996;2022-11-13T03:41:35;102102.09;;;5.59;100.00
2673;BME280;1346;51.558;6.996;2022-11-13T03:44:02;102093.63;;;5.52;100.00
2673;BME280;1346;51.558;6.996;2022-11-13T03:46:29;102095.59;;;5.49;100.00
2673;BME280;1346;51.558;6.996;2022-11-13T03:48:57;102082.56;;;5.44;100.00
2673;BME280;1346;51.558;6.996;2022-11-13T03:51:24;102082.81;;;5.40;100.00
2673;BME280;1346;51.558;6.996;2022-11-13T03:53:51;102085.56;;;5.38;100.00
2673;BME280;1346;51.558;6.996;2022-11-13T03:56:18;102077.88;;;5.34;100.00
2673;BME280;1346;51.558;6.996;2022-11-13T03:58:45;102087.72;;;5.32;100.00
2673;BME280;1346;51.558;6.996;2022-11-13T04:01:11;102088.84;;;5.28;100.00
2673;BME280;1346;51.558;6.996;2022-11-13T04:03:38;102078.38;;;5.25;100.00
2673;BME280;1346;51.558;6.996;2022-11-13T04:06:07;102081.28;;;5.20;100.00
2673;BME280;1346;51.558;6.996;2022-11-13T04:08:34;102082.31;;;5.18;100.00
2673;BME280;1346;51.558;6.996;2022-11-13T04:11:08;102080.78;;;5.14;100.00
2673;BME280;1346;51.558;6.996;2022-11-13T04:13:36;102077.34;;;5.12;100.00
2673;BME280;1346;51.558;6.996;2022-11-13T04:16:04;102074.88;;;5.09;100.00
2673;BME280;1346;51.558;6.996;2022-11-13T04:18:31;102073.31;;;5.05;100.00
2673;BME280;1346;51.558;6.996;2022-11-13T04:20:58;102077.00;;;5.02;100.00
2673;BME280;1346;51.558;6.996;2022-11-13T04:23:27;102070.06;;;5.00;100.00
2673;BME280;1346;51.558;6.996;2022-11-13T04:25:54;102068.44;;;4.97;100.00
2673;BME280;1346;51.558;6.996;2022-11-13T04:28:22;102058.81;;;4.94;100.00
2673;BME280;1346;51.558;6.996;2022-11-13T04:30:49;102058.13;;;4.91;100.00
2673;BME280;1346;51.558;6.996;2022-11-13T04:33:18;102058.31;;;4.88;100.00
2673;BME280;1346;51.558;6.996;2022-11-13T04:35:45;102061.06;;;4.86;100.00
2673;BME280;1346;51.558;6.996;2022-11-13T04:38:13;102055.06;;;4.83;100.00
2673;BME280;1346;51.558;6.996;2022-11-13T04:40:42;102056.94;;;4.81;100.00
2673;BME280;1346;51.558;6.996;2022-11-13T04:43:09;102058.81;;;4.79;100.00
2673;BME280;1346;51.558;6.996;2022-11-13T04:45:35;102052.81;;;4.75;100.00
2673;BME280;1346;51.558;6.996;2022-11-13T04:48:03;102051.19;;;4.73;100.00
2673;BME280;1346;51.558;6.996;2022-11-13T04:50:30;102050.41;;;4.71;100.00
2673;BME280;1346;51.558;6.996;2022-11-13T04:52:57;102052.28;;;4.69;100.00
2673;BME280;1346;51.558;6.996;2022-11-13T04:55:24;102050.66;;;4.66;100.00
2673;BME280;1346;51.558;6.996;2022-11-13T04:57:53;102048.06;;;4.65;100.00
2673;BME280;1346;51.558;6.996;2022-11-13T05:00:21;102046.44;;;4.62;100.00
2673;BME280;1346;51.558;6.996;2022-11-13T05:02:48;102043.00;;;4.60;100.00
2673;BME280;1346;51.558;6.996;2022-11-13T05:05:15;102044.97;;;4.57;100.00
2673;BME280;1346;51.558;6.996;2022-11-13T05:07:42;102041.47;;;4.56;100.00
2673;BME280;1346;51.558;6.996;2022-11-13T05:10:09;102040.78;;;4.53;100.00
2673;BME280;1346;51.558;6.996;2022-11-13T05:12:36;102043.50;;;4.51;100.00
2673;BME280;1346;51.558;6.996;2022-11-13T05:15:06;102040.94;;;4.50;100.00
2673;BME280;1346;51.558;6.996;2022-11-13T05:17:33;102034.88;;;4.48;100.00
2673;BME280;1346;51.558;6.996;2022-11-13T05:20:00;102041.09;;;4.47;100.00
2673;BME280;1346;51.558;6.996;2022-11-13T05:22:27;102036.75;;;4.46;100.00
2673;BME280;1346;51.558;6.996;2022-11-13T05:24:54;102037.66;;;4.45;100.00
2673;BME280;1346;51.558;6.996;2022-11-13T05:27:21;102031.53;;;4.44;100.00
2673;BME280;1346;51.558;6.996;2022-11-13T05:29:48;102035.97;;;4.44;100.00
2673;BME280;1346;51.558;6.996;2022-11-13T05:32:16;102028.97;;;4.43;100.00
2673;BME280;1346;51.558;6.996;2022-11-13T05:34:43;102021.91;;;4.42;100.00
2673;BME280;1346;51.558;6.996;2022-11-13T05:37:10;102028.19;;;4.41;100.00
2673;BME280;1346;51.558;6.996;2022-11-13T05:39:37;102022.09;;;4.39;100.00
2673;BME280;1346;51.558;6.996;2022-11-13T05:42:04;102021.22;;;4.38;100.00
2673;BME280;1346;51.558;6.996;2022-11-13T05:44:31;102015.91;;;4.38;100.00
2673;BME280;1346;51.558;6.996;2022-11-13T05:46:58;102008.91;;;4.37;100.00
2673;BME280;1346;51.558;6.996;2022-11-13T05:49:26;102001.03;;;4.36;100.00
2673;BME280;1346;51.558;6.996;2022-11-13T05:51:53;102003.78;;;4.34;100.00
2673;BME280;1346;51.558;6.996;2022-11-13T05:54:20;101998.69;;;4.30;100.00
2673;BME280;1346;51.558;6.996;2022-11-13T05:56:47;102000.66;;;4.26;100.00
2673;BME280;1346;51.558;6.996;2022-11-13T05:59:14;101994.66;;;4.23;100.00
2673;BME280;1346;51.558;6.996;2022-11-13T06:01:41;102002.84;;;4.18;100.00
2673;BME280;1346;51.558;6.996;2022-11-13T06:04:09;102003.03;;;4.15;100.00
2673;BME280;1346;51.558;6.996;2022-11-13T06:06:37;102005.75;;;4.14;100.00
2673;BME280;1346;51.558;6.996;2022-11-13T06:09:05;101996.16;;;4.11;100.00
2673;BME280;1346;51.558;6.996;2022-11-13T06:11:33;102002.50;;;4.09;100.00
2673;BME280;1346;51.558;6.996;2022-11-13T06:14:00;101991.09;;;4.07;100.00
2673;BME280;1346;51.558;6.996;2022-11-13T06:16:29;101993.97;;;4.02;100.00
2673;BME280;1346;51.558;6.996;2022-11-13T06:18:58;101987.13;;;3.98;100.00
2673;BME280;1346;51.558;6.996;2022-11-13T06:21:28;101989.88;;;3.97;100.00
2673;BME280;1346;51.558;6.996;2022-11-13T06:23:57;101985.50;;;3.96;100.00
2673;BME280;1346;51.558;6.996;2022-11-13T06:26:27;101982.09;;;3.94;100.00
2673;BME280;1346;51.558;6.996;2022-11-13T06:28:54;101975.91;;;3.93;100.00
2673;BME280;1346;51.558;6.996;2022-11-13T06:31:25;101980.44;;;3.91;100.00
2673;BME280;1346;51.558;6.996;2022-11-13T06:33:53;101976.13;;;3.89;100.00
2673;BME280;1346;51.558;6.996;2022-11-13T06:36:22;101980.69;;;3.87;100.00
2673;BME280;1346;51.558;6.996;2022-11-13T06:38:50;101974.59;;;3.85;100.00
2673;BME280;1346;51.558;6.996;2022-11-13T06:41:20;101978.16;;;3.84;100.00
2673;BME280;1346;51.558;6.996;2022-11-13T06:43:48;101974.75;;;3.82;100.00
2673;BME280;1346;51.558;6.996;2022-11-13T06:46:17;101975.75;;;3.79;100.00
2673;BME280;1346;51.558;6.996;2022-11-13T06:48:45;101979.44;;;3.77;100.00
2673;BME280;1346;51.558;6.996;2022-11-13T06:51:14;101983.03;;;3.76;100.00
2673;BME280;1346;51.558;6.996;2022-11-13T06:53:42;101978.59;;;3.76;100.00
2673;BME280;1346;51.558;6.996;2022-11-13T06:56:09;101968.84;;;3.77;100.00
2673;BME280;1346;51.558;6.996;2022-11-13T06:58:38;101971.41;;;3.78;100.00
2673;BME280;1346;51.558;6.996;2022-11-13T07:01:06;101973.97;;;3.80;100.00
2673;BME280;1346;51.558;6.996;2022-11-13T07:03:34;101973.97;;;3.80;100.00
2673;BME280;1346;51.558;6.996;2022-11-13T07:06:02;101969.59;;;3.79;100.00
2673;BME280;1346;51.558;6.996;2022-11-13T07:08:29;101965.25;;;3.78;100.00
2673;BME280;1346;51.558;6.996;2022-11-13T07:10:57;101966.13;;;3.78;100.00
2673;BME280;1346;51.558;6.996;2022-11-13T07:13:26;101960.72;;;3.80;100.00
2673;BME280;1346;51.558;6.996;2022-11-13T07:16:00;101956.28;;;3.80;100.00
2673;BME280;1346;51.558;6.996;2022-11-13T07:18:28;101963.22;;;3.83;100.00
2673;BME280;1346;51.558;6.996;2022-11-13T07:20:55;101958.69;;;3.85;100.00
2673;BME280;1346;51.558;6.996;2022-11-13T07:23:22;101955.88;;;3.88;100.00
2673;BME280;1346;51.558;6.996;2022-11-13T07:25:52;101955.72;;;3.91;100.00
2673;BME280;1346;51.558;6.996;2022-11-13T07:28:19;101958.28;;;3.92;100.00
2673;BME280;1346;51.558;6.996;2022-11-13T07:30:46;101954.63;;;3.95;100.00
2673;BME280;1346;51.558;6.996;2022-11-13T07:33:14;101940.28;;;3.99;100.00
2673;BME280;1346;51.558;6.996;2022-11-13T07:35:41;101939.25;;;4.01;100.00
2673;BME280;1346;51.558;6.996;2022-11-13T07:38:08;101944.38;;;4.04;100.00
2673;BME280;1346;51.558;6.996;2022-11-13T07:40:35;101938.84;;;4.09;100.00
2673;BME280;1346;51.558;6.996;2022-11-13T07:43:02;101942.94;;;4.14;100.00
2673;BME280;1346;51.558;6.996;2022-11-13T07:45:29;101937.31;;;4.20;100.00
2673;BME280;1346;51.558;6.996;2022-11-13T07:47:57;101950.34;;;4.25;100.00
2673;BME280;1346;51.558;6.996;2022-11-13T07:50:27;101949.25;;;4.29;100.00
2673;BME280;1346;51.558;6.996;2022-11-13T07:52:55;101944.53;;;4.34;100.00
2673;BME280;1346;51.558;6.996;2022-11-13T07:55:23;101943.28;;;4.41;100.00
2673;BME280;1346;51.558;6.996;2022-11-13T07:57:49;101948.06;;;4.50;100.00
2673;BME280;1346;51.558;6.996;2022-11-13T08:00:17;101943.94;;;4.60;100.00
2673;BME280;1346;51.558;6.996;2022-11-13T08:02:44;101938.13;;;4.69;100.00
2673;BME280;1346;51.558;6.996;2022-11-13T08:05:13;101934.03;;;4.79;100.00
2673;BME280;1346;51.558;6.996;2022-11-13T08:07:41;101935.31;;;4.87;100.00
2673;BME280;1346;51.558;6.996;2022-11-13T08:10:08;101928.59;;;4.96;100.00
2673;BME280;1346;51.558;6.996;2022-11-13T08:12:35;101936.94;;;5.06;100.00
2673;BME280;1346;51.558;6.996;2022-11-13T08:15:03;101937.16;;;5.17;100.00
2673;BME280;1346;51.558;6.996;2022-11-13T08:17:30;101930.25;;;5.28;100.00
2673;BME280;1346;51.558;6.996;2022-11-13T08:19:57;101931.44;;;5.38;100.00
2673;BME280;1346;51.558;6.996;2022-11-13T08:22:24;101930.72;;;5.50;100.00
2673;BME280;1346;51.558;6.996;2022-11-13T08:24:52;101929.97;;;5.62;100.00
2673;BME280;1346;51.558;6.996;2022-11-13T08:27:19;101926.50;;;5.76;100.00
2673;BME280;1346;51.558;6.996;2022-11-13T08:29:47;101928.34;;;5.89;100.00
2673;BME280;1346;51.558;6.996;2022-11-13T08:32:14;101924.84;;;6.03;100.00
2673;BME280;1346;51.558;6.996;2022-11-13T08:34:41;101923.06;;;6.18;100.00
2673;BME280;1346;51.558;6.996;2022-11-13T08:37:08;101918.56;;;6.32;100.00
2673;BME280;1346;51.558;6.996;2022-11-13T08:39:35;101910.47;;;6.48;100.00
2673;BME280;1346;51.558;6.996;2022-11-13T08:42:04;101915.78;;;6.62;100.00
2673;BME280;1346;51.558;6.996;2022-11-13T08:44:31;101903.25;;;6.76;100.00
2673;BME280;1346;51.558;6.996;2022-11-13T08:46:58;101901.41;;;6.91;100.00
2673;BME280;1346;51.558;6.996;2022-11-13T08:49:24;101902.41;;;7.02;100.00
2673;BME280;1346;51.558;6.996;2022-11-13T08:51:51;101903.41;;;7.14;100.00
2673;BME280;1346;51.558;6.996;2022-11-13T08:54:18;101900.66;;;7.28;100.00
2673;BME280;1346;51.558;6.996;2022-11-13T08:56:53;101894.31;;;7.43;100.00
2673;BME280;1346;51.558;6.996;2022-11-13T08:59:20;101896.75;;;7.59;100.00
2673;BME280;1346;51.558;6.996;2022-11-13T09:01:48;101889.75;;;7.70;100.00
2673;BME280;1346;51.558;6.996;2022-11-13T09:04:15;101889.84;;;7.81;100.00
2673;BME280;1346;51.558;6.996;2022-11-13T09:06:42;101880.03;;;7.94;100.00
2673;BME280;1346;51.558;6.996;2022-11-13T09:09:09;101867.53;;;8.07;100.00
2673;BME280;1346;51.558;6.996;2022-11-13T09:11:36;101871.16;;;8.19;100.00
2673;BME280;1346;51.558;6.996;2022-11-13T09:14:04;101875.75;;;8.29;100.00
2673;BME280;1346;51.558;6.996;2022-11-13T09:16:31;101875.72;;;8.42;100.00
2673;BME280;1346;51.558;6.996;2022-11-13T09:18:58;101871.09;;;8.57;100.00
2673;BME280;1346;51.558;6.996;2022-11-13T09:21:25;101870.91;;;8.71;100.00
2673;BME280;1346;51.558;6.996;2022-11-13T09:23:52;101867.13;;;8.86;100.00
2673;BME280;1346;51.558;6.996;2022-11-13T09:26:18;101866.94;;;9.00;100.00
2673;BME280;1346;51.558;6.996;2022-11-13T09:28:45;101866.66;;;9.15;100.00
2673;BME280;1346;51.558;6.996;2022-11-13T09:31:14;101863.66;;;9.31;100.00
2673;BME280;1346;51.558;6.996;2022-11-13T09:33:41;101870.75;;;9.43;100.00
2673;BME280;1346;51.558;6.996;2022-11-13T09:36:13;101871.63;;;9.54;100.00
2673;BME280;1346;51.558;6.996;2022-11-13T09:38:42;101871.31;;;9.70;100.00
2673;BME280;1346;51.558;6.996;2022-11-13T09:41:11;101866.44;;;9.86;100.00
2673;BME280;1346;51.558;6.996;2022-11-13T09:43:45;101875.94;;;10.01;100.00
2673;BME280;1346;51.558;6.996;2022-11-13T09:46:19;101868.81;;;10.13;100.00
2673;BME280;1346;51.558;6.996;2022-11-13T09:48:52;101870.88;;;10.31;100.00
2673;BME280;1346;51.558;6.996;2022-11-13T09:51:23;101863.91;;;10.51;100.00
2673;BME280;1346;51.558;6.996;2022-11-13T09:53:51;101859.00;;;10.67;100.00
2673;BME280;1346;51.558;6.996;2022-11-13T09:56:27;101861.03;;;10.85;100.00
2673;BME280;1346;51.558;6.996;2022-11-13T09:59:04;101862.16;;;11.04;100.00
2673;BME280;1346;51.558;6.996;2022-11-13T10:01:46;101853.56;;;11.21;100.00
2673;BME280;1346;51.558;6.996;2022-11-13T10:04:23;101849.44;;;11.37;100.00
2673;BME280;1346;51.558;6.996;2022-11-13T10:07:02;101850.94;;;11.51;100.00
2673;BME280;1346;51.558;6.996;2022-11-13T10:09:53;101860.41;;;11.66;100.00
2673;BME280;1346;51.558;6.996;2022-11-13T10:12:22;101854.69;;;11.80;100.00
2673;BME280;1346;51.558;6.996;2022-11-13T10:14:51;101852.38;;;11.96;100.00
2673;BME280;1346;51.558;6.996;2022-11-13T10:17:27;101854.69;;;12.10;100.00
2673;BME280;1346;51.558;6.996;2022-11-13T10:19:59;101851.66;;;12.24;100.00
2673;BME280;1346;51.558;6.996;2022-11-13T10:22:32;101856.94;;;12.35;100.00
2673;BME280;1346;51.558;6.996;2022-11-13T10:25:11;101855.81;;;12.47;100.00
2673;BME280;1346;51.558;6.996;2022-11-13T10:27:41;101851.06;;;12.60;100.00
2673;BME280;1346;51.558;6.996;2022-11-13T10:30:15;101842.72;;;12.73;100.00
2673;BME280;1346;51.558;6.996;2022-11-13T10:32:44;101836.78;;;12.88;100.00
2673;BME280;1346;51.558;6.996;2022-11-13T10:38:23;101837.97;;;13.14;100.00
2673;BME280;1346;51.558;6.996;2022-11-13T10:40:51;101837.66;;;13.27;100.00
2673;BME280;1346;51.558;6.996;2022-11-13T10:43:21;101829.31;;;13.40;99.86
2673;BME280;1346;51.558;6.996;2022-11-13T10:45:56;101828.16;;;13.52;98.80
2673;BME280;1346;51.558;6.996;2022-11-13T10:48:27;101822.59;;;13.63;97.87
2673;BME280;1346;51.558;6.996;2022-11-13T10:50:59;101820.44;;;13.76;96.85
2673;BME280;1346;51.558;6.996;2022-11-13T10:53:37;101822.53;;;13.91;95.57
2673;BME280;1346;51.558;6.996;2022-11-13T10:56:20;101803.31;;;14.04;95.10
2673;BME280;1346;51.558;6.996;2022-11-13T10:59:00;101803.97;;;14.15;94.44
2673;BME280;1346;51.558;6.996;2022-11-13T11:01:27;101798.53;;;14.25;93.71
2673;BME280;1346;51.558;6.996;2022-11-13T11:03:56;101801.75;;;14.38;93.32
2673;BME280;1346;51.558;6.996;2022-11-13T11:06:31;101801.41;;;14.50;92.11
2673;BME280;1346;51.558;6.996;2022-11-13T11:09:13;101793.22;;;14.60;89.95
2673;BME280;1346;51.558;6.996;2022-11-13T11:11:55;101787.47;;;14.73;88.55
2673;BME280;1346;51.558;6.996;2022-11-13T11:14:59;101788.78;;;14.86;82.60
2673;BME280;1346;51.558;6.996;2022-11-13T11:17:36;101788.69;;;14.96;79.53
2673;BME280;1346;51.558;6.996;2022-11-13T11:20:15;101781.34;;;15.06;71.60
2673;BME280;1346;51.558;6.996;2022-11-13T11:22:47;101781.13;;;15.17;69.05
2673;BME280;1346;51.558;6.996;2022-11-13T11:25:23;101781.03;;;15.26;64.83
2673;BME280;1346;51.558;6.996;2022-11-13T11:27:56;101769.28;;;15.35;66.56
2673;BME280;1346;51.558;6.996;2022-11-13T11:30:33;101760.41;;;15.43;67.96
2673;BME280;1346;51.558;6.996;2022-11-13T11:33:10;101754.91;;;15.52;65.63
2673;BME280;1346;51.558;6.996;2022-11-13T11:35:44;101754.09;;;15.60;66.49
2673;BME280;1346;51.558;6.996;2022-11-13T11:38:18;101752.28;;;15.68;67.98
2673;BME280;1346;51.558;6.996;2022-11-13T11:40:50;101747.09;;;15.75;68.55
2673;BME280;1346;51.558;6.996;2022-11-13T11:43:26;101735.50;;;15.83;68.00
2673;BME280;1346;51.558;6.996;2022-11-13T11:45:54;101739.25;;;15.90;68.20
2673;BME280;1346;51.558;6.996;2022-11-13T11:48:25;101733.00;;;15.97;65.50
2673;BME280;1346;51.558;6.996;2022-11-13T11:51:07;101722.53;;;16.02;63.25
2673;BME280;1346;51.558;6.996;2022-11-13T11:53:51;101727.84;;;16.12;61.77
2673;BME280;1346;51.558;6.996;2022-11-13T11:56:26;101731.94;;;16.24;60.09
2673;BME280;1346;51.558;6.996;2022-11-13T11:59:32;101731.09;;;16.31;57.71
2673;BME280;1346;51.558;6.996;2022-11-13T12:02:35;101718.44;;;16.40;57.80
2673;BME280;1346;51.558;6.996;2022-11-13T12:05:20;101716.47;;;16.50;55.35
2673;BME280;1346;51.558;6.996;2022-11-13T12:08:00;101719.16;;;16.58;54.51
2673;BME280;1346;51.558;6.996;2022-11-13T12:10:38;101717.47;;;16.65;53.31
2673;BME280;1346;51.558;6.996;2022-11-13T12:13:18;101721.56;;;16.69;53.57
2673;BME280;1346;51.558;6.996;2022-11-13T12:15:53;101714.28;;;16.69;53.72
2673;BME280;1346;51.558;6.996;2022-11-13T12:18:34;101704.47;;;16.76;53.23
2673;BME280;1346;51.558;6.996;2022-11-13T12:21:21;101701.63;;;16.78;52.58
2673;BME280;1346;51.558;6.996;2022-11-13T12:24:17;101696.84;;;16.80;53.93
2673;BME280;1346;51.558;6.996;2022-11-13T12:26:56;101682.31;;;16.81;54.35
2673;BME280;1346;51.558;6.996;2022-11-13T12:29:39;101684.19;;;16.80;55.57
2673;BME280;1346;51.558;6.996;2022-11-13T12:32:31;101674.56;;;16.78;56.87
2673;BME280;1346;51.558;6.996;2022-11-13T12:35:07;101670.81;;;16.79;57.66
2673;BME280;1346;51.558;6.996;2022-11-13T12:37:40;101664.22;;;16.81;57.57
2673;BME280;1346;51.558;6.996;2022-11-13T12:40:24;101654.22;;;16.82;57.34
2673;BME280;1346;51.558;6.996;2022-11-13T12:43:01;101658.47;;;16.84;55.72
2673;BME280;1346;51.558;6.996;2022-11-13T12:45:47;101649.84;;;16.89;56.50
2673;BME280;1346;51.558;6.996;2022-11-13T12:48:31;101648.16;;;16.88;56.99
2673;BME280;1346;51.558;6.996;2022-11-13T12:51:00;101647.81;;;16.91;57.39
2673;BME280;1346;51.558;6.996;2022-11-13T12:53:30;101636.97;;;16.91;56.17
2673;BME280;1346;51.558;6.996;2022-11-13T12:56:00;101632.59;;;16.90;55.98
2673;BME280;1346;51.558;6.996;2022-11-13T12:58:29;101627.66;;;16.93;55.25
2673;BME280;1346;51.558;6.996;2022-11-13T13:01:04;101636.97;;;16.99;53.99
2673;BME280;1346;51.558;6.996;2022-11-13T13:03:51;101630.88;;;17.05;54.79
2673;BME280;1346;51.558;6.996;2022-11-13T13:06:44;101617.66;;;17.10;54.44
2673;BME280;1346;51.558;6.996;2022-11-13T13:09:30;101609.69;;;17.17;53.26
2673;BME280;1346;51.558;6.996;2022-11-13T13:12:12;101611.84;;;17.21;52.63
2673;BME280;1346;51.558;6.996;2022-11-13T13:17:48;101601.72;;;17.15;54.67
2673;BME280;1346;51.558;6.996;2022-11-13T13:20:32;101599.53;;;17.11;54.51
2673;BME280;1346;51.558;6.996;2022-11-13T13:23:00;101593.47;;;17.09;53.88
2673;BME280;1346;51.558;6.996;2022-11-13T13:25:29;101595.16;;;17.10;54.16
2673;BME280;1346;51.558;6.996;2022-11-13T13:28:00;101594.09;;;17.11;54.63
2673;BME280;1346;51.558;6.996;2022-11-13T13:30:30;101594.66;;;17.06;56.18
2673;BME280;1346;51.558;6.996;2022-11-13T13:33:15;101582.63;;;17.01;56.28